Terminal Aerodrome Forecast
Issued by NWS

Home | Current Version | Previous Version | Text Only | Print | Product List | Glossary On
Versions: 1 2 3 4 5 6 7 8 9 10 11 12
856
FTUS43 KAPX 260526
TAFAPN
TAF
KAPN 260526Z 2606/2706 00000KT P6SM FEW035 FEW200
     FM260700 00000KT 5SM BR SCT200
     FM261300 VRB03KT P6SM SCT200
     FM261700 18006KT P6SM SCT050 SCT250
     FM270100 21004KT P6SM BKN040 BKN100
     FM270500 26004KT P6SM BKN028 BKN100=

USA.gov is the U.S. government's official web portal to all federal, state and local government web resources and services.